sensor_id;sensor_type;location;lat;lon;timestamp;temperature;humidity
52621;DHT22;38515;53.160;6.990;2023-04-03T00:00:47;1.10;99.90
52621;DHT22;38515;53.160;6.990;2023-04-03T00:03:15;1.00;99.90
52621;DHT22;38515;53.160;6.990;2023-04-03T00:05:40;2.30;99.90
52621;DHT22;38515;53.160;6.990;2023-04-03T00:08:07;0.90;99.90
52621;DHT22;38515;53.160;6.990;2023-04-03T00:10:35;0.90;99.90
52621;DHT22;38515;53.160;6.990;2023-04-03T00:13:01;1.20;99.90
52621;DHT22;38515;53.160;6.990;2023-04-03T00:15:27;0.80;99.90
52621;DHT22;38515;53.160;6.990;2023-04-03T00:17:52;0.80;99.90
52621;DHT22;38515;53.160;6.990;2023-04-03T00:20:18;0.80;99.90
52621;DHT22;38515;53.160;6.990;2023-04-03T00:22:44;0.80;99.90
52621;DHT22;38515;53.160;6.990;2023-04-03T00:25:10;0.70;99.90
52621;DHT22;38515;53.160;6.990;2023-04-03T00:27:36;0.70;99.90
52621;DHT22;38515;53.160;6.990;2023-04-03T00:30:02;0.70;99.90
52621;DHT22;38515;53.160;6.990;2023-04-03T00:32:28;0.60;99.90
52621;DHT22;38515;53.160;6.990;2023-04-03T00:34:53;0.60;99.90
52621;DHT22;38515;53.160;6.990;2023-04-03T00:37:19;0.60;99.90
52621;DHT22;38515;53.160;6.990;2023-04-03T00:39:45;0.60;99.90
52621;DHT22;38515;53.160;6.990;2023-04-03T00:42:11;0.70;99.90
52621;DHT22;38515;53.160;6.990;2023-04-03T00:47:05;0.60;99.90
52621;DHT22;38515;53.160;6.990;2023-04-03T00:49:32;0.60;99.90
52621;DHT22;38515;53.160;6.990;2023-04-03T00:51:58;0.60;99.90
52621;DHT22;38515;53.160;6.990;2023-04-03T00:54:24;0.60;99.90
52621;DHT22;38515;53.160;6.990;2023-04-03T00:56:54;0.60;99.90
52621;DHT22;38515;53.160;6.990;2023-04-03T00:59:21;0.60;99.90
52621;DHT22;38515;53.160;6.990;2023-04-03T01:01:54;0.60;99.90
52621;DHT22;38515;53.160;6.990;2023-04-03T01:06:52;0.50;99.90
52621;DHT22;38515;53.160;6.990;2023-04-03T01:09:17;0.40;99.90
52621;DHT22;38515;53.160;6.990;2023-04-03T01:11:43;0.40;99.90
52621;DHT22;38515;53.160;6.990;2023-04-03T01:14:09;0.40;99.90
52621;DHT22;38515;53.160;6.990;2023-04-03T01:16:34;0.40;99.90
52621;DHT22;38515;53.160;6.990;2023-04-03T01:19:00;0.50;99.90
52621;DHT22;38515;53.160;6.990;2023-04-03T01:26:27;0.30;99.90
52621;DHT22;38515;53.160;6.990;2023-04-03T01:28:54;0.30;99.90
52621;DHT22;38515;53.160;6.990;2023-04-03T01:33:46;0.20;99.90
52621;DHT22;38515;53.160;6.990;2023-04-03T01:36:16;0.20;99.90
52621;DHT22;38515;53.160;6.990;2023-04-03T01:38:42;0.20;99.90
52621;DHT22;38515;53.160;6.990;2023-04-03T01:41:08;0.20;99.90
52621;DHT22;38515;53.160;6.990;2023-04-03T01:43:34;0.10;99.90
52621;DHT22;38515;53.160;6.990;2023-04-03T01:45:59;0.10;99.90
52621;DHT22;38515;53.160;6.990;2023-04-03T01:48:25;0.00;99.90
52621;DHT22;38515;53.160;6.990;2023-04-03T01:50:51;0.10;99.90
52621;DHT22;38515;53.160;6.990;2023-04-03T01:53:16;0.10;99.90
52621;DHT22;38515;53.160;6.990;2023-04-03T01:55:42;0.10;99.90
52621;DHT22;38515;53.160;6.990;2023-04-03T01:58:08;0.10;99.90
52621;DHT22;38515;53.160;6.990;2023-04-03T02:00:33;0.10;99.90
52621;DHT22;38515;53.160;6.990;2023-04-03T02:02:59;0.00;99.90
52621;DHT22;38515;53.160;6.990;2023-04-03T02:05:25;0.00;99.90
52621;DHT22;38515;53.160;6.990;2023-04-03T02:07:51;0.00;99.90
52621;DHT22;38515;53.160;6.990;2023-04-03T02:10:17;0.00;99.90
52621;DHT22;38515;53.160;6.990;2023-04-03T02:12:42;0.00;99.90
52621;DHT22;38515;53.160;6.990;2023-04-03T02:15:08;0.00;99.90
52621;DHT22;38515;53.160;6.990;2023-04-03T02:17:34;-0.10;99.90
52621;DHT22;38515;53.160;6.990;2023-04-03T02:20:00;-0.10;99.90
52621;DHT22;38515;53.160;6.990;2023-04-03T02:22:26;-0.10;99.90
52621;DHT22;38515;53.160;6.990;2023-04-03T02:24:52;-0.20;99.90
52621;DHT22;38515;53.160;6.990;2023-04-03T02:27:17;-0.20;99.90
52621;DHT22;38515;53.160;6.990;2023-04-03T02:29:43;-0.20;99.90
52621;DHT22;38515;53.160;6.990;2023-04-03T02:32:09;-0.20;99.90
52621;DHT22;38515;53.160;6.990;2023-04-03T02:34:34;-0.20;99.90
52621;DHT22;38515;53.160;6.990;2023-04-03T02:37:00;-0.30;99.90
52621;DHT22;38515;53.160;6.990;2023-04-03T02:39:28;-0.30;99.90
52621;DHT22;38515;53.160;6.990;2023-04-03T02:41:54;-0.40;99.90
52621;DHT22;38515;53.160;6.990;2023-04-03T02:44:20;-0.40;99.90
52621;DHT22;38515;53.160;6.990;2023-04-03T02:46:45;-0.50;99.90
52621;DHT22;38515;53.160;6.990;2023-04-03T02:49:11;-0.50;99.90
52621;DHT22;38515;53.160;6.990;2023-04-03T02:51:37;-0.60;99.90
52621;DHT22;38515;53.160;6.990;2023-04-03T02:54:03;-1.40;99.90
52621;DHT22;38515;53.160;6.990;2023-04-03T02:56:28;-0.70;99.90
52621;DHT22;38515;53.160;6.990;2023-04-03T02:58:54;-0.80;99.90
52621;DHT22;38515;53.160;6.990;2023-04-03T03:01:20;-0.80;99.90
52621;DHT22;38515;53.160;6.990;2023-04-03T03:03:45;-0.90;99.90
52621;DHT22;38515;53.160;6.990;2023-04-03T03:06:12;-0.90;99.90
52621;DHT22;38515;53.160;6.990;2023-04-03T03:08:39;-0.90;99.90
52621;DHT22;38515;53.160;6.990;2023-04-03T03:11:05;-0.80;99.90
52621;DHT22;38515;53.160;6.990;2023-04-03T03:13:31;-0.90;99.90
52621;DHT22;38515;53.160;6.990;2023-04-03T03:15:57;-0.80;99.90
52621;DHT22;38515;53.160;6.990;2023-04-03T03:18:22;-0.80;99.90
52621;DHT22;38515;53.160;6.990;2023-04-03T03:20:52;-0.80;99.90
52621;DHT22;38515;53.160;6.990;2023-04-03T03:23:18;-0.80;99.90
52621;DHT22;38515;53.160;6.990;2023-04-03T03:25:44;-0.70;99.90
52621;DHT22;38515;53.160;6.990;2023-04-03T03:28:09;-0.80;99.90
52621;DHT22;38515;53.160;6.990;2023-04-03T03:30:35;-0.80;99.90
52621;DHT22;38515;53.160;6.990;2023-04-03T03:33:01;-0.80;99.90
52621;DHT22;38515;53.160;6.990;2023-04-03T03:35:26;-0.80;99.90
52621;DHT22;38515;53.160;6.990;2023-04-03T03:37:52;-0.80;99.90
52621;DHT22;38515;53.160;6.990;2023-04-03T03:40:18;-0.80;99.90
52621;DHT22;38515;53.160;6.990;2023-04-03T03:42:43;-0.90;99.90
52621;DHT22;38515;53.160;6.990;2023-04-03T03:45:09;-0.90;99.90
52621;DHT22;38515;53.160;6.990;2023-04-03T03:47:35;-0.90;99.90
52621;DHT22;38515;53.160;6.990;2023-04-03T03:50:01;-0.90;99.90
52621;DHT22;38515;53.160;6.990;2023-04-03T03:52:27;-1.00;99.90
52621;DHT22;38515;53.160;6.990;2023-04-03T03:54:53;-0.90;99.90
52621;DHT22;38515;53.160;6.990;2023-04-03T03:57:19;-1.00;99.90
52621;DHT22;38515;53.160;6.990;2023-04-03T03:59:44;-0.90;99.90
52621;DHT22;38515;53.160;6.990;2023-04-03T04:02:10;-1.00;99.90
52621;DHT22;38515;53.160;6.990;2023-04-03T04:04:36;-1.00;99.90
52621;DHT22;38515;53.160;6.990;2023-04-03T04:07:03;-1.00;99.90
52621;DHT22;38515;53.160;6.990;2023-04-03T04:09:28;-1.00;99.90
52621;DHT22;38515;53.160;6.990;2023-04-03T04:11:54;-1.00;99.90
52621;DHT22;38515;53.160;6.990;2023-04-03T04:14:20;-1.00;99.90
52621;DHT22;38515;53.160;6.990;2023-04-03T04:16:46;-1.00;99.90
52621;DHT22;38515;53.160;6.990;2023-04-03T04:19:12;-0.80;99.90
52621;DHT22;38515;53.160;6.990;2023-04-03T04:21:38;-1.00;99.90
52621;DHT22;38515;53.160;6.990;2023-04-03T04:24:04;-1.10;99.90
52621;DHT22;38515;53.160;6.990;2023-04-03T04:26:30;-1.10;99.90
52621;DHT22;38515;53.160;6.990;2023-04-03T04:28:56;-1.10;99.90
52621;DHT22;38515;53.160;6.990;2023-04-03T04:31:22;-1.10;99.90
52621;DHT22;38515;53.160;6.990;2023-04-03T04:33:47;-1.10;99.90
52621;DHT22;38515;53.160;6.990;2023-04-03T04:36:13;-1.10;99.90
52621;DHT22;38515;53.160;6.990;2023-04-03T04:38:40;-1.10;99.90
52621;DHT22;38515;53.160;6.990;2023-04-03T04:41:06;-1.10;99.90
52621;DHT22;38515;53.160;6.990;2023-04-03T04:43:31;-1.10;99.90
52621;DHT22;38515;53.160;6.990;2023-04-03T04:46:15;-1.10;99.90
52621;DHT22;38515;53.160;6.990;2023-04-03T04:48:41;-1.10;99.90
52621;DHT22;38515;53.160;6.990;2023-04-03T04:51:07;-1.10;99.90
52621;DHT22;38515;53.160;6.990;2023-04-03T04:53:33;-1.10;99.90
52621;DHT22;38515;53.160;6.990;2023-04-03T04:55:59;-1.10;99.90
52621;DHT22;38515;53.160;6.990;2023-04-03T04:58:24;-1.10;99.90
52621;DHT22;38515;53.160;6.990;2023-04-03T05:03:25;-1.20;99.90
52621;DHT22;38515;53.160;6.990;2023-04-03T05:05:54;-1.20;99.90
52621;DHT22;38515;53.160;6.990;2023-04-03T05:08:20;-1.20;99.90
52621;DHT22;38515;53.160;6.990;2023-04-03T05:10:45;-1.20;99.90
52621;DHT22;38515;53.160;6.990;2023-04-03T05:13:12;-1.20;99.90
52621;DHT22;38515;53.160;6.990;2023-04-03T05:15:38;-1.20;99.90
52621;DHT22;38515;53.160;6.990;2023-04-03T05:18:03;-1.20;99.90
52621;DHT22;38515;53.160;6.990;2023-04-03T05:20:30;0.50;99.90
52621;DHT22;38515;53.160;6.990;2023-04-03T05:22:56;-1.20;99.90
52621;DHT22;38515;53.160;6.990;2023-04-03T05:25:22;-1.30;99.90
52621;DHT22;38515;53.160;6.990;2023-04-03T05:27:47;-1.20;99.90
52621;DHT22;38515;53.160;6.990;2023-04-03T05:30:13;-1.30;99.90
52621;DHT22;38515;53.160;6.990;2023-04-03T05:32:39;-1.20;99.90
52621;DHT22;38515;53.160;6.990;2023-04-03T05:35:05;-1.20;99.90
52621;DHT22;38515;53.160;6.990;2023-04-03T05:37:32;-1.10;99.90
52621;DHT22;38515;53.160;6.990;2023-04-03T05:39:57;-1.00;99.90
52621;DHT22;38515;53.160;6.990;2023-04-03T05:42:23;-1.00;99.90
52621;DHT22;38515;53.160;6.990;2023-04-03T05:44:49;-0.90;99.90
52621;DHT22;38515;53.160;6.990;2023-04-03T05:47:15;-1.00;99.90
52621;DHT22;38515;53.160;6.990;2023-04-03T05:49:41;-0.90;99.90
52621;DHT22;38515;53.160;6.990;2023-04-03T05:54:51;1.30;99.90
52621;DHT22;38515;53.160;6.990;2023-04-03T05:57:17;0.30;99.90
52621;DHT22;38515;53.160;6.990;2023-04-03T05:59:43;0.70;99.90
52621;DHT22;38515;53.160;6.990;2023-04-03T06:02:10;0.80;99.90
52621;DHT22;38515;53.160;6.990;2023-04-03T06:04:37;0.90;99.90
52621;DHT22;38515;53.160;6.990;2023-04-03T06:07:03;0.90;99.90
52621;DHT22;38515;53.160;6.990;2023-04-03T06:09:29;1.00;99.90
52621;DHT22;38515;53.160;6.990;2023-04-03T06:11:55;1.00;99.90
52621;DHT22;38515;53.160;6.990;2023-04-03T06:14:26;0.90;99.90
52621;DHT22;38515;53.160;6.990;2023-04-03T06:16:52;0.90;99.90
52621;DHT22;38515;53.160;6.990;2023-04-03T06:19:18;1.50;99.90
52621;DHT22;38515;53.160;6.990;2023-04-03T06:21:43;2.50;99.90
52621;DHT22;38515;53.160;6.990;2023-04-03T06:24:09;3.70;99.90
52621;DHT22;38515;53.160;6.990;2023-04-03T06:26:37;4.70;99.90
52621;DHT22;38515;53.160;6.990;2023-04-03T06:29:03;5.60;99.90
52621;DHT22;38515;53.160;6.990;2023-04-03T06:31:29;5.90;99.90
52621;DHT22;38515;53.160;6.990;2023-04-03T06:33:55;6.40;99.90
52621;DHT22;38515;53.160;6.990;2023-04-03T06:36:21;6.60;99.90
52621;DHT22;38515;53.160;6.990;2023-04-03T06:38:48;7.10;99.90
52621;DHT22;38515;53.160;6.990;2023-04-03T06:41:20;7.40;99.90
52621;DHT22;38515;53.160;6.990;2023-04-03T06:43:46;7.40;99.90
52621;DHT22;38515;53.160;6.990;2023-04-03T06:46:15;7.50;99.90
52621;DHT22;38515;53.160;6.990;2023-04-03T06:48:41;7.30;99.90
52621;DHT22;38515;53.160;6.990;2023-04-03T06:51:11;7.20;99.90
52621;DHT22;38515;53.160;6.990;2023-04-03T06:53:37;7.00;99.90
52621;DHT22;38515;53.160;6.990;2023-04-03T06:56:03;7.20;99.90
52621;DHT22;38515;53.160;6.990;2023-04-03T06:58:29;7.50;99.90
52621;DHT22;38515;53.160;6.990;2023-04-03T07:00:54;7.90;99.90
52621;DHT22;38515;53.160;6.990;2023-04-03T07:03:21;8.40;99.90
52621;DHT22;38515;53.160;6.990;2023-04-03T07:05:46;8.10;99.90
52621;DHT22;38515;53.160;6.990;2023-04-03T07:08:12;8.30;99.90
52621;DHT22;38515;53.160;6.990;2023-04-03T07:10:38;8.80;99.90
52621;DHT22;38515;53.160;6.990;2023-04-03T07:13:03;8.80;99.90
52621;DHT22;38515;53.160;6.990;2023-04-03T07:15:29;8.80;98.30
52621;DHT22;38515;53.160;6.990;2023-04-03T07:17:55;8.40;98.30
52621;DHT22;38515;53.160;6.990;2023-04-03T07:20:21;7.80;98.90
52621;DHT22;38515;53.160;6.990;2023-04-03T07:22:47;7.70;99.30
52621;DHT22;38515;53.160;6.990;2023-04-03T07:25:12;8.00;99.90
52621;DHT22;38515;53.160;6.990;2023-04-03T07:27:38;8.40;99.90
52621;DHT22;38515;53.160;6.990;2023-04-03T07:30:04;8.50;99.90
52621;DHT22;38515;53.160;6.990;2023-04-03T07:32:32;8.80;98.80
52621;DHT22;38515;53.160;6.990;2023-04-03T07:34:59;8.80;98.70
52621;DHT22;38515;53.160;6.990;2023-04-03T07:37:25;8.10;97.50
52621;DHT22;38515;53.160;6.990;2023-04-03T07:39:51;8.10;99.00
52621;DHT22;38515;53.160;6.990;2023-04-03T07:42:17;7.60;99.90
52621;DHT22;38515;53.160;6.990;2023-04-03T07:44:43;7.50;99.90
52621;DHT22;38515;53.160;6.990;2023-04-03T07:47:09;7.30;99.90
52621;DHT22;38515;53.160;6.990;2023-04-03T07:49:35;8.00;99.90
52621;DHT22;38515;53.160;6.990;2023-04-03T07:52:03;7.00;99.90
52621;DHT22;38515;53.160;6.990;2023-04-03T07:54:29;7.00;99.90
52621;DHT22;38515;53.160;6.990;2023-04-03T07:56:55;6.90;99.90
52621;DHT22;38515;53.160;6.990;2023-04-03T07:59:22;6.60;99.90
52621;DHT22;38515;53.160;6.990;2023-04-03T08:01:47;6.90;99.90
52621;DHT22;38515;53.160;6.990;2023-04-03T08:04:13;7.30;99.90
52621;DHT22;38515;53.160;6.990;2023-04-03T08:06:39;7.20;99.90
52621;DHT22;38515;53.160;6.990;2023-04-03T08:09:04;7.00;99.90
52621;DHT22;38515;53.160;6.990;2023-04-03T08:11:30;7.10;99.90
52621;DHT22;38515;53.160;6.990;2023-04-03T08:13:56;7.10;99.90
52621;DHT22;38515;53.160;6.990;2023-04-03T08:16:23;7.50;99.90
52621;DHT22;38515;53.160;6.990;2023-04-03T08:18:51;7.30;99.90
52621;DHT22;38515;53.160;6.990;2023-04-03T08:21:16;7.00;99.90
52621;DHT22;38515;53.160;6.990;2023-04-03T08:23:42;6.70;99.90
52621;DHT22;38515;53.160;6.990;2023-04-03T08:26:09;6.70;99.90
52621;DHT22;38515;53.160;6.990;2023-04-03T08:28:35;6.20;99.90
52621;DHT22;38515;53.160;6.990;2023-04-03T08:31:02;6.40;98.80
52621;DHT22;38515;53.160;6.990;2023-04-03T08:33:28;6.40;99.30
52621;DHT22;38515;53.160;6.990;2023-04-03T08:35:53;6.60;99.90
52621;DHT22;38515;53.160;6.990;2023-04-03T08:38:19;6.80;99.90
52621;DHT22;38515;53.160;6.990;2023-04-03T08:40:45;7.00;98.60
52621;DHT22;38515;53.160;6.990;2023-04-03T08:43:20;6.60;99.90
52621;DHT22;38515;53.160;6.990;2023-04-03T08:45:56;6.80;99.10
52621;DHT22;38515;53.160;6.990;2023-04-03T08:48:27;6.90;99.90
52621;DHT22;38515;53.160;6.990;2023-04-03T08:50:56;7.20;99.90
52621;DHT22;38515;53.160;6.990;2023-04-03T08:53:25;7.50;99.90
52621;DHT22;38515;53.160;6.990;2023-04-03T08:55:53;7.50;99.90
52621;DHT22;38515;53.160;6.990;2023-04-03T08:58:22;7.80;96.60
52621;DHT22;38515;53.160;6.990;2023-04-03T09:00:57;8.10;97.40
52621;DHT22;38515;53.160;6.990;2023-04-03T09:03:23;8.40;99.90
52621;DHT22;38515;53.160;6.990;2023-04-03T09:08:22;7.50;93.50
52621;DHT22;38515;53.160;6.990;2023-04-03T09:10:50;7.60;99.90
52621;DHT22;38515;53.160;6.990;2023-04-03T09:15:46;7.50;92.60
52621;DHT22;38515;53.160;6.990;2023-04-03T09:18:16;7.60;96.30
52621;DHT22;38515;53.160;6.990;2023-04-03T09:21:01;7.80;92.20
52621;DHT22;38515;53.160;6.990;2023-04-03T09:26:07;7.60;94.40
52621;DHT22;38515;53.160;6.990;2023-04-03T09:28:37;7.30;90.90
52621;DHT22;38515;53.160;6.990;2023-04-03T09:31:14;6.90;90.30
52621;DHT22;38515;53.160;6.990;2023-04-03T09:33:42;7.00;92.40
52621;DHT22;38515;53.160;6.990;2023-04-03T09:36:07;7.00;91.60
52621;DHT22;38515;53.160;6.990;2023-04-03T09:38:33;7.40;90.80
52621;DHT22;38515;53.160;6.990;2023-04-03T09:43:52;7.20;91.60
52621;DHT22;38515;53.160;6.990;2023-04-03T09:49:05;7.40;91.90
52621;DHT22;38515;53.160;6.990;2023-04-03T09:51:32;7.20;95.30
52621;DHT22;38515;53.160;6.990;2023-04-03T09:53:57;7.40;94.00
52621;DHT22;38515;53.160;6.990;2023-04-03T09:56:27;7.50;90.00
52621;DHT22;38515;53.160;6.990;2023-04-03T10:01:27;8.10;94.60
52621;DHT22;38515;53.160;6.990;2023-04-03T10:06:56;8.60;90.40
52621;DHT22;38515;53.160;6.990;2023-04-03T10:09:25;8.50;90.00
52621;DHT22;38515;53.160;6.990;2023-04-03T10:12:10;8.50;85.80
52621;DHT22;38515;53.160;6.990;2023-04-03T10:14:40;8.60;91.80
52621;DHT22;38515;53.160;6.990;2023-04-03T10:17:22;8.40;74.10
52621;DHT22;38515;53.160;6.990;2023-04-03T10:32:45;8.70;84.70
52621;DHT22;38515;53.160;6.990;2023-04-03T10:35:25;8.80;81.50
52621;DHT22;38515;53.160;6.990;2023-04-03T10:46:02;9.00;99.30
52621;DHT22;38515;53.160;6.990;2023-04-03T10:53:59;8.30;73.10
52621;DHT22;38515;53.160;6.990;2023-04-03T10:56:42;8.30;95.70
52621;DHT22;38515;53.160;6.990;2023-04-03T10:59:15;8.00;74.30
52621;DHT22;38515;53.160;6.990;2023-04-03T11:01:44;7.80;72.80
52621;DHT22;38515;53.160;6.990;2023-04-03T11:04:10;7.80;77.20
52621;DHT22;38515;53.160;6.990;2023-04-03T11:06:44;7.80;75.70
52621;DHT22;38515;53.160;6.990;2023-04-03T11:11:38;7.70;75.00
52621;DHT22;38515;53.160;6.990;2023-04-03T11:16:42;7.60;82.50
52621;DHT22;38515;53.160;6.990;2023-04-03T11:19:11;7.60;76.80
52621;DHT22;38515;53.160;6.990;2023-04-03T11:21:43;7.90;81.70
52621;DHT22;38515;53.160;6.990;2023-04-03T11:24:32;8.10;75.60
52621;DHT22;38515;53.160;6.990;2023-04-03T11:26:56;8.40;81.20
52621;DHT22;38515;53.160;6.990;2023-04-03T11:29:29;8.60;79.00
52621;DHT22;38515;53.160;6.990;2023-04-03T11:32:01;8.80;78.60
52621;DHT22;38515;53.160;6.990;2023-04-03T11:34:36;9.00;79.60
52621;DHT22;38515;53.160;6.990;2023-04-03T11:37:51;9.00;75.90
52621;DHT22;38515;53.160;6.990;2023-04-03T11:39:56;9.10;73.90
52621;DHT22;38515;53.160;6.990;2023-04-03T11:42:24;9.20;76.90
52621;DHT22;38515;53.160;6.990;2023-04-03T11:45:06;9.00;71.90
52621;DHT22;38515;53.160;6.990;2023-04-03T11:47:44;9.20;78.10
52621;DHT22;38515;53.160;6.990;2023-04-03T11:52:59;9.50;76.20
52621;DHT22;38515;53.160;6.990;2023-04-03T12:05:48;9.80;74.10
52621;DHT22;38515;53.160;6.990;2023-04-03T12:16:05;9.60;71.00
52621;DHT22;38515;53.160;6.990;2023-04-03T12:21:09;9.80;71.30
52621;DHT22;38515;53.160;6.990;2023-04-03T12:23:37;9.80;72.20
52621;DHT22;38515;53.160;6.990;2023-04-03T12:26:21;9.80;68.90
52621;DHT22;38515;53.160;6.990;2023-04-03T12:28:48;9.70;74.20
52621;DHT22;38515;53.160;6.990;2023-04-03T12:31:15;9.50;72.00
52621;DHT22;38515;53.160;6.990;2023-04-03T12:34:26;9.70;77.40
52621;DHT22;38515;53.160;6.990;2023-04-03T12:36:54;9.80;75.40
52621;DHT22;38515;53.160;6.990;2023-04-03T12:47:17;9.40;81.10
52621;DHT22;38515;53.160;6.990;2023-04-03T12:49:45;9.50;73.90
52621;DHT22;38515;53.160;6.990;2023-04-03T12:54:46;9.60;73.60
52621;DHT22;38515;53.160;6.990;2023-04-03T12:57:20;9.60;77.80
52621;DHT22;38515;53.160;6.990;2023-04-03T12:59:46;9.70;69.60
52621;DHT22;38515;53.160;6.990;2023-04-03T13:02:34;9.80;72.10
52621;DHT22;38515;53.160;6.990;2023-04-03T13:05:05;9.90;71.60
52621;DHT22;38515;53.160;6.990;2023-04-03T13:07:32;9.90;69.40
52621;DHT22;38515;53.160;6.990;2023-04-03T13:10:00;9.80;68.30
52621;DHT22;38515;53.160;6.990;2023-04-03T13:12:26;9.70;88.20
52621;DHT22;38515;53.160;6.990;2023-04-03T13:14:53;9.80;74.40
52621;DHT22;38515;53.160;6.990;2023-04-03T13:17:19;9.90;69.80
52621;DHT22;38515;53.160;6.990;2023-04-03T13:19:46;9.90;74.00
52621;DHT22;38515;53.160;6.990;2023-04-03T13:24:48;9.90;75.00
52621;DHT22;38515;53.160;6.990;2023-04-03T13:27:15;9.90;78.50
52621;DHT22;38515;53.160;6.990;2023-04-03T13:29:40;9.80;74.60
52621;DHT22;38515;53.160;6.990;2023-04-03T13:32:06;9.60;78.40
52621;DHT22;38515;53.160;6.990;2023-04-03T13:34:41;9.60;73.20
52621;DHT22;38515;53.160;6.990;2023-04-03T13:37:11;9.60;74.90
52621;DHT22;38515;53.160;6.990;2023-04-03T13:39:44;9.50;74.90
52621;DHT22;38515;53.160;6.990;2023-04-03T13:44:41;9.50;75.00
52621;DHT22;38515;53.160;6.990;2023-04-03T13:49:37;9.70;73.70
52621;DHT22;38515;53.160;6.990;2023-04-03T13:52:26;9.60;78.70
52621;DHT22;38515;53.160;6.990;2023-04-03T13:54:53;9.60;75.70
52621;DHT22;38515;53.160;6.990;2023-04-03T13:57:20;9.70;74.20
52621;DHT22;38515;53.160;6.990;2023-04-03T13:59:46;9.70;74.20
52621;DHT22;38515;53.160;6.990;2023-04-03T14:02:16;9.70;77.60
52621;DHT22;38515;53.160;6.990;2023-04-03T14:07:09;9.60;73.60
52621;DHT22;38515;53.160;6.990;2023-04-03T14:09:35;9.60;74.80
52621;DHT22;38515;53.160;6.990;2023-04-03T14:12:08;9.60;72.30
52621;DHT22;38515;53.160;6.990;2023-04-03T14:14:37;9.70;73.10
52621;DHT22;38515;53.160;6.990;2023-04-03T14:17:10;9.80;73.70
52621;DHT22;38515;53.160;6.990;2023-04-03T14:19:39;9.80;72.60
52621;DHT22;38515;53.160;6.990;2023-04-03T14:22:25;9.70;74.50
52621;DHT22;38515;53.160;6.990;2023-04-03T14:24:52;9.70;73.60
52621;DHT22;38515;53.160;6.990;2023-04-03T14:27:19;9.60;77.60
52621;DHT22;38515;53.160;6.990;2023-04-03T14:29:46;9.50;75.70
52621;DHT22;38515;53.160;6.990;2023-04-03T14:32:13;9.50;74.70
52621;DHT22;38515;53.160;6.990;2023-04-03T14:34:39;9.50;77.00
52621;DHT22;38515;53.160;6.990;2023-04-03T14:37:05;9.60;79.10
52621;DHT22;38515;53.160;6.990;2023-04-03T14:39:34;9.50;77.50
52621;DHT22;38515;53.160;6.990;2023-04-03T14:42:00;9.60;77.40
52621;DHT22;38515;53.160;6.990;2023-04-03T14:44:26;9.60;77.70
52621;DHT22;38515;53.160;6.990;2023-04-03T14:46:51;9.60;74.00
52621;DHT22;38515;53.160;6.990;2023-04-03T14:49:18;9.50;79.90
52621;DHT22;38515;53.160;6.990;2023-04-03T14:51:46;9.50;77.90
52621;DHT22;38515;53.160;6.990;2023-04-03T14:54:16;9.50;81.60
52621;DHT22;38515;53.160;6.990;2023-04-03T14:56:42;9.50;78.30
52621;DHT22;38515;53.160;6.990;2023-04-03T14:59:09;9.40;76.50
52621;DHT22;38515;53.160;6.990;2023-04-03T15:01:35;9.30;73.70
52621;DHT22;38515;53.160;6.990;2023-04-03T15:04:01;9.30;74.40
52621;DHT22;38515;53.160;6.990;2023-04-03T15:06:26;9.30;81.10
52621;DHT22;38515;53.160;6.990;2023-04-03T15:08:52;9.30;74.70
52621;DHT22;38515;53.160;6.990;2023-04-03T15:11:18;9.20;84.00
52621;DHT22;38515;53.160;6.990;2023-04-03T15:13:43;9.20;75.80
52621;DHT22;38515;53.160;6.990;2023-04-03T15:16:12;9.20;75.30
52621;DHT22;38515;53.160;6.990;2023-04-03T15:18:39;9.30;81.90
52621;DHT22;38515;53.160;6.990;2023-04-03T15:21:05;9.30;77.70
52621;DHT22;38515;53.160;6.990;2023-04-03T15:23:30;9.30;75.20
52621;DHT22;38515;53.160;6.990;2023-04-03T15:25:56;9.30;77.00
52621;DHT22;38515;53.160;6.990;2023-04-03T15:28:36;9.30;77.50
52621;DHT22;38515;53.160;6.990;2023-04-03T15:31:03;9.30;77.20
52621;DHT22;38515;53.160;6.990;2023-04-03T15:33:29;9.20;77.10
52621;DHT22;38515;53.160;6.990;2023-04-03T15:35:55;9.30;76.30
52621;DHT22;38515;53.160;6.990;2023-04-03T15:38:21;9.30;79.30
52621;DHT22;38515;53.160;6.990;2023-04-03T15:40:47;9.10;75.80
52621;DHT22;38515;53.160;6.990;2023-04-03T15:43:13;9.10;73.80
52621;DHT22;38515;53.160;6.990;2023-04-03T15:45:39;9.10;81.00
52621;DHT22;38515;53.160;6.990;2023-04-03T15:48:05;10.10;79.40
52621;DHT22;38515;53.160;6.990;2023-04-03T15:50:34;9.20;75.40
52621;DHT22;38515;53.160;6.990;2023-04-03T15:53:00;9.30;79.20
52621;DHT22;38515;53.160;6.990;2023-04-03T15:55:30;9.40;76.00
52621;DHT22;38515;53.160;6.990;2023-04-03T15:57:56;9.40;76.40
52621;DHT22;38515;53.160;6.990;2023-04-03T16:00:23;9.60;78.00
52621;DHT22;38515;53.160;6.990;2023-04-03T16:02:50;9.70;76.50
52621;DHT22;38515;53.160;6.990;2023-04-03T16:05:17;9.90;80.60
52621;DHT22;38515;53.160;6.990;2023-04-03T16:07:43;10.00;75.50
52621;DHT22;38515;53.160;6.990;2023-04-03T16:10:10;9.90;77.60
52621;DHT22;38515;53.160;6.990;2023-04-03T16:12:36;10.00;77.30
52621;DHT22;38515;53.160;6.990;2023-04-03T16:15:02;10.10;77.70
52621;DHT22;38515;53.160;6.990;2023-04-03T16:17:27;10.20;77.60
52621;DHT22;38515;53.160;6.990;2023-04-03T16:19:54;10.20;78.00
52621;DHT22;38515;53.160;6.990;2023-04-03T16:22:20;10.10;79.00
52621;DHT22;38515;53.160;6.990;2023-04-03T16:24:45;10.00;76.60
52621;DHT22;38515;53.160;6.990;2023-04-03T16:27:11;10.20;75.10
52621;DHT22;38515;53.160;6.990;2023-04-03T16:29:37;10.50;76.80
52621;DHT22;38515;53.160;6.990;2023-04-03T16:32:03;11.30;79.70
52621;DHT22;38515;53.160;6.990;2023-04-03T16:34:29;10.70;77.20
52621;DHT22;38515;53.160;6.990;2023-04-03T16:36:57;10.90;74.80
52621;DHT22;38515;53.160;6.990;2023-04-03T16:39:23;10.50;71.00
52621;DHT22;38515;53.160;6.990;2023-04-03T16:41:48;10.30;76.20
52621;DHT22;38515;53.160;6.990;2023-04-03T16:44:14;10.00;79.40
52621;DHT22;38515;53.160;6.990;2023-04-03T16:46:40;9.80;80.30
52621;DHT22;38515;53.160;6.990;2023-04-03T16:49:05;9.80;77.90
52621;DHT22;38515;53.160;6.990;2023-04-03T16:51:31;9.80;81.30
52621;DHT22;38515;53.160;6.990;2023-04-03T16:53:57;9.90;81.50
52621;DHT22;38515;53.160;6.990;2023-04-03T16:56:23;10.20;79.60
52621;DHT22;38515;53.160;6.990;2023-04-03T16:58:49;10.20;77.90
52621;DHT22;38515;53.160;6.990;2023-04-03T17:01:16;9.90;79.60
52621;DHT22;38515;53.160;6.990;2023-04-03T17:03:42;9.70;79.20
52621;DHT22;38515;53.160;6.990;2023-04-03T17:06:09;9.30;78.10
52621;DHT22;38515;53.160;6.990;2023-04-03T17:08:41;9.10;79.10
52621;DHT22;38515;53.160;6.990;2023-04-03T17:11:07;8.90;87.20
52621;DHT22;38515;53.160;6.990;2023-04-03T17:13:33;8.80;85.70
52621;DHT22;38515;53.160;6.990;2023-04-03T17:15:59;8.60;85.20
52621;DHT22;38515;53.160;6.990;2023-04-03T17:18:25;8.40;81.20
52621;DHT22;38515;53.160;6.990;2023-04-03T17:20:55;8.30;82.50
52621;DHT22;38515;53.160;6.990;2023-04-03T17:23:21;8.10;81.30
52621;DHT22;38515;53.160;6.990;2023-04-03T17:25:47;8.00;88.30
52621;DHT22;38515;53.160;6.990;2023-04-03T17:28:13;7.80;85.70
52621;DHT22;38515;53.160;6.990;2023-04-03T17:30:38;8.60;85.90
52621;DHT22;38515;53.160;6.990;2023-04-03T17:33:04;7.50;84.00
52621;DHT22;38515;53.160;6.990;2023-04-03T17:35:30;7.40;87.50